sensor_id;sensor_type;location;lat;lon;timestamp;pressure;altitude;pressure_sealevel;temperature;humidity
38197;BME280;26543;51.976;4.616;2023-05-23T00:01:53;52597.84;;;-140.72;100.00
38197;BME280;26543;51.976;4.616;2023-05-23T00:04:19;52614.06;;;-140.72;100.00
38197;BME280;26543;51.976;4.616;2023-05-23T00:06:57;52622.19;;;-140.72;100.00
38197;BME280;26543;51.976;4.616;2023-05-23T00:09:23;52577.53;;;-140.72;100.00
38197;BME280;26543;51.976;4.616;2023-05-23T00:11:48;52577.53;;;-140.72;100.00
38197;BME280;26543;51.976;4.616;2023-05-23T00:14:14;52636.38;;;-140.72;100.00
38197;BME280;26543;51.976;4.616;2023-05-23T00:16:43;52610.00;;;-140.72;100.00
38197;BME280;26543;51.976;4.616;2023-05-23T00:19:09;52618.13;;;-140.72;100.00
38197;BME280;26543;51.976;4.616;2023-05-23T00:21:35;52607.97;;;-140.72;100.00
38197;BME280;26543;51.976;4.616;2023-05-23T00:24:00;52636.38;;;-140.72;100.00
38197;BME280;26543;51.976;4.616;2023-05-23T00:26:29;52622.19;;;-140.72;100.00
38197;BME280;26543;51.976;4.616;2023-05-23T00:28:54;52585.66;;;-140.72;100.00
38197;BME280;26543;51.976;4.616;2023-05-23T00:31:20;52603.94;;;-140.72;100.00
38197;BME280;26543;51.976;4.616;2023-05-23T00:33:45;52605.94;;;-140.72;100.00
38197;BME280;26543;51.976;4.616;2023-05-23T00:36:10;52644.50;;;-140.72;100.00
38197;BME280;26543;51.976;4.616;2023-05-23T00:38:37;52595.81;;;-140.72;100.00
38197;BME280;26543;51.976;4.616;2023-05-23T00:41:03;52622.19;;;-140.72;100.00
38197;BME280;26543;51.976;4.616;2023-05-23T00:43:28;52605.94;;;-140.72;100.00
38197;BME280;26543;51.976;4.616;2023-05-23T00:45:55;52599.88;;;-140.72;100.00
38197;BME280;26543;51.976;4.616;2023-05-23T00:48:20;52601.91;;;-140.72;100.00
38197;BME280;26543;51.976;4.616;2023-05-23T00:50:52;52638.41;;;-140.72;100.00
38197;BME280;26543;51.976;4.616;2023-05-23T00:53:18;52610.00;;;-140.72;100.00
38197;BME280;26543;51.976;4.616;2023-05-23T00:55:44;52620.16;;;-140.72;100.00
38197;BME280;26543;51.976;4.616;2023-05-23T00:58:09;52612.03;;;-140.72;100.00
38197;BME280;26543;51.976;4.616;2023-05-23T01:00:35;52666.84;;;-140.72;100.00
38197;BME280;26543;51.976;4.616;2023-05-23T01:03:02;52638.41;;;-140.72;100.00
38197;BME280;26543;51.976;4.616;2023-05-23T01:05:29;52610.00;;;-140.72;100.00
38197;BME280;26543;51.976;4.616;2023-05-23T01:07:54;52624.22;;;-140.72;100.00
38197;BME280;26543;51.976;4.616;2023-05-23T01:10:24;52632.34;;;-140.72;100.00
38197;BME280;26543;51.976;4.616;2023-05-23T01:15:28;52614.06;;;-140.72;100.00
38197;BME280;26543;51.976;4.616;2023-05-23T01:17:58;52597.84;;;-140.72;100.00
38197;BME280;26543;51.976;4.616;2023-05-23T01:20:40;52607.97;;;-140.72;100.00
38197;BME280;26543;51.976;4.616;2023-05-23T01:23:09;52593.78;;;-140.72;100.00
38197;BME280;26543;51.976;4.616;2023-05-23T01:28:15;52648.56;;;-140.72;100.00
38197;BME280;26543;51.976;4.616;2023-05-23T01:30:43;52622.19;;;-140.72;100.00
38197;BME280;26543;51.976;4.616;2023-05-23T01:33:09;52605.94;;;-140.72;100.00
38197;BME280;26543;51.976;4.616;2023-05-23T01:35:37;52626.25;;;-140.72;100.00
38197;BME280;26543;51.976;4.616;2023-05-23T01:38:03;52593.78;;;-140.72;100.00
38197;BME280;26543;51.976;4.616;2023-05-23T01:40:28;52599.88;;;-140.72;100.00
38197;BME280;26543;51.976;4.616;2023-05-23T01:42:53;52626.25;;;-140.72;100.00
38197;BME280;26543;51.976;4.616;2023-05-23T01:45:21;52658.72;;;-140.72;100.00
38197;BME280;26543;51.976;4.616;2023-05-23T01:47:48;52597.84;;;-140.72;100.00
38197;BME280;26543;51.976;4.616;2023-05-23T01:50:14;52646.53;;;-140.72;100.00
38197;BME280;26543;51.976;4.616;2023-05-23T01:52:40;52601.91;;;-140.72;100.00
38197;BME280;26543;51.976;4.616;2023-05-23T01:55:06;52616.09;;;-140.72;100.00
38197;BME280;26543;51.976;4.616;2023-05-23T01:57:34;52603.94;;;-140.72;100.00
38197;BME280;26543;51.976;4.616;2023-05-23T01:59:59;52622.19;;;-140.72;100.00
38197;BME280;26543;51.976;4.616;2023-05-23T02:02:25;52630.31;;;-140.72;100.00
38197;BME280;26543;51.976;4.616;2023-05-23T02:04:50;52614.06;;;-140.72;100.00
38197;BME280;26543;51.976;4.616;2023-05-23T02:07:15;52603.94;;;-140.72;100.00
38197;BME280;26543;51.976;4.616;2023-05-23T02:09:40;52607.97;;;-140.72;100.00
38197;BME280;26543;51.976;4.616;2023-05-23T02:12:06;52614.06;;;-140.72;100.00
38197;BME280;26543;51.976;4.616;2023-05-23T02:14:31;52622.19;;;-140.72;100.00
38197;BME280;26543;51.976;4.616;2023-05-23T02:16:56;52628.28;;;-140.72;100.00
38197;BME280;26543;51.976;4.616;2023-05-23T02:19:21;52597.84;;;-140.72;100.00
38197;BME280;26543;51.976;4.616;2023-05-23T02:21:47;52614.06;;;-140.72;100.00
38197;BME280;26543;51.976;4.616;2023-05-23T02:24:12;52593.78;;;-140.72;100.00
38197;BME280;26543;51.976;4.616;2023-05-23T02:26:37;52632.34;;;-140.72;100.00
38197;BME280;26543;51.976;4.616;2023-05-23T02:29:02;52603.94;;;-140.72;100.00
38197;BME280;26543;51.976;4.616;2023-05-23T02:31:27;52595.81;;;-140.72;100.00
38197;BME280;26543;51.976;4.616;2023-05-23T02:33:53;52614.06;;;-140.72;100.00
38197;BME280;26543;51.976;4.616;2023-05-23T02:36:18;52636.38;;;-140.72;100.00
38197;BME280;26543;51.976;4.616;2023-05-23T02:41:36;52642.47;;;-140.72;100.00
38197;BME280;26543;51.976;4.616;2023-05-23T02:44:07;52612.03;;;-140.72;100.00
38197;BME280;26543;51.976;4.616;2023-05-23T02:46:32;52630.31;;;-140.72;100.00
38197;BME280;26543;51.976;4.616;2023-05-23T02:48:57;52585.66;;;-140.72;100.00
38197;BME280;26543;51.976;4.616;2023-05-23T02:51:22;52603.94;;;-140.72;100.00
38197;BME280;26543;51.976;4.616;2023-05-23T02:53:48;52630.31;;;-140.72;100.00
38197;BME280;26543;51.976;4.616;2023-05-23T02:56:13;52644.50;;;-140.72;100.00
38197;BME280;26543;51.976;4.616;2023-05-23T02:58:39;52614.06;;;-140.72;100.00
38197;BME280;26543;51.976;4.616;2023-05-23T03:01:05;52610.00;;;-140.72;100.00
38197;BME280;26543;51.976;4.616;2023-05-23T03:03:30;52618.13;;;-140.72;100.00
38197;BME280;26543;51.976;4.616;2023-05-23T03:05:58;52628.28;;;-140.72;100.00
38197;BME280;26543;51.976;4.616;2023-05-23T03:08:24;52610.00;;;-140.72;100.00
38197;BME280;26543;51.976;4.616;2023-05-23T03:10:49;52605.94;;;-140.72;100.00
38197;BME280;26543;51.976;4.616;2023-05-23T03:13:15;52638.41;;;-140.72;100.00
38197;BME280;26543;51.976;4.616;2023-05-23T03:15:40;52591.75;;;-140.72;100.00
38197;BME280;26543;51.976;4.616;2023-05-23T03:18:05;52638.41;;;-140.72;100.00
38197;BME280;26543;51.976;4.616;2023-05-23T03:20:31;52626.25;;;-140.72;100.00
38197;BME280;26543;51.976;4.616;2023-05-23T03:22:56;52630.31;;;-140.72;100.00
38197;BME280;26543;51.976;4.616;2023-05-23T03:25:21;52614.06;;;-140.72;100.00
38197;BME280;26543;51.976;4.616;2023-05-23T03:27:46;52650.59;;;-140.72;100.00
38197;BME280;26543;51.976;4.616;2023-05-23T03:30:12;52601.91;;;-140.72;100.00
38197;BME280;26543;51.976;4.616;2023-05-23T03:32:37;52612.03;;;-140.72;100.00
38197;BME280;26543;51.976;4.616;2023-05-23T03:35:02;52601.91;;;-140.72;100.00
38197;BME280;26543;51.976;4.616;2023-05-23T03:37:27;52630.31;;;-140.72;100.00
38197;BME280;26543;51.976;4.616;2023-05-23T03:39:53;52654.66;;;-140.72;100.00
38197;BME280;26543;51.976;4.616;2023-05-23T03:42:18;52634.38;;;-140.72;100.00
38197;BME280;26543;51.976;4.616;2023-05-23T03:44:43;52656.69;;;-140.72;100.00
38197;BME280;26543;51.976;4.616;2023-05-23T03:47:08;52632.34;;;-140.72;100.00
38197;BME280;26543;51.976;4.616;2023-05-23T03:49:34;52648.56;;;-140.72;100.00
38197;BME280;26543;51.976;4.616;2023-05-23T03:51:59;52605.94;;;-140.72;100.00
38197;BME280;26543;51.976;4.616;2023-05-23T03:54:24;52646.53;;;-140.72;100.00
38197;BME280;26543;51.976;4.616;2023-05-23T03:56:49;52610.00;;;-140.72;100.00
38197;BME280;26543;51.976;4.616;2023-05-23T03:59:15;52593.78;;;-140.72;100.00
38197;BME280;26543;51.976;4.616;2023-05-23T04:01:40;52618.13;;;-140.72;100.00
38197;BME280;26543;51.976;4.616;2023-05-23T04:04:05;52632.34;;;-140.72;100.00
38197;BME280;26543;51.976;4.616;2023-05-23T04:06:30;52612.03;;;-140.72;100.00
38197;BME280;26543;51.976;4.616;2023-05-23T04:08:56;52652.63;;;-140.72;100.00
38197;BME280;26543;51.976;4.616;2023-05-23T04:11:21;52644.50;;;-140.72;100.00
38197;BME280;26543;51.976;4.616;2023-05-23T04:13:46;52642.47;;;-140.72;100.00
38197;BME280;26543;51.976;4.616;2023-05-23T04:16:12;52614.06;;;-140.72;100.00
38197;BME280;26543;51.976;4.616;2023-05-23T04:18:37;52638.41;;;-140.72;100.00
38197;BME280;26543;51.976;4.616;2023-05-23T04:21:03;52593.78;;;-140.72;100.00
38197;BME280;26543;51.976;4.616;2023-05-23T04:23:28;52650.59;;;-140.72;100.00
38197;BME280;26543;51.976;4.616;2023-05-23T04:25:53;52642.47;;;-140.72;100.00
38197;BME280;26543;51.976;4.616;2023-05-23T04:28:19;52646.53;;;-140.72;100.00
38197;BME280;26543;51.976;4.616;2023-05-23T04:30:44;52638.41;;;-140.72;100.00
38197;BME280;26543;51.976;4.616;2023-05-23T04:33:09;52658.72;;;-140.72;100.00
38197;BME280;26543;51.976;4.616;2023-05-23T04:35:35;52630.31;;;-140.72;100.00
38197;BME280;26543;51.976;4.616;2023-05-23T04:38:03;52658.72;;;-140.72;100.00
38197;BME280;26543;51.976;4.616;2023-05-23T04:40:28;52676.97;;;-140.72;100.00
38197;BME280;26543;51.976;4.616;2023-05-23T04:42:53;52622.19;;;-140.72;100.00
38197;BME280;26543;51.976;4.616;2023-05-23T04:45:19;52654.66;;;-140.72;100.00
38197;BME280;26543;51.976;4.616;2023-05-23T04:47:44;52630.31;;;-140.72;100.00
38197;BME280;26543;51.976;4.616;2023-05-23T04:50:10;52638.41;;;-140.72;100.00
38197;BME280;26543;51.976;4.616;2023-05-23T04:52:36;52636.38;;;-140.72;100.00
38197;BME280;26543;51.976;4.616;2023-05-23T04:55:01;52681.03;;;-140.72;100.00
38197;BME280;26543;51.976;4.616;2023-05-23T04:57:26;52642.47;;;-140.72;100.00
38197;BME280;26543;51.976;4.616;2023-05-23T04:59:51;52654.66;;;-140.72;100.00
38197;BME280;26543;51.976;4.616;2023-05-23T05:02:18;52622.19;;;-140.72;100.00
38197;BME280;26543;51.976;4.616;2023-05-23T05:04:43;52674.94;;;-140.72;100.00
38197;BME280;26543;51.976;4.616;2023-05-23T05:07:09;52618.13;;;-140.72;100.00
38197;BME280;26543;51.976;4.616;2023-05-23T05:09:34;52638.41;;;-140.72;100.00
38197;BME280;26543;51.976;4.616;2023-05-23T05:12:00;52610.00;;;-140.72;100.00
38197;BME280;26543;51.976;4.616;2023-05-23T05:14:25;52648.56;;;-140.72;100.00
38197;BME280;26543;51.976;4.616;2023-05-23T05:16:51;52624.22;;;-140.72;100.00
38197;BME280;26543;51.976;4.616;2023-05-23T05:19:16;52632.34;;;-140.72;100.00
38197;BME280;26543;51.976;4.616;2023-05-23T05:21:41;52636.38;;;-140.72;100.00
38197;BME280;26543;51.976;4.616;2023-05-23T05:24:06;52605.94;;;-140.72;100.00
38197;BME280;26543;51.976;4.616;2023-05-23T05:26:47;52622.19;;;-140.72;100.00
38197;BME280;26543;51.976;4.616;2023-05-23T05:29:12;52632.34;;;-140.72;100.00
38197;BME280;26543;51.976;4.616;2023-05-23T05:31:38;52660.75;;;-140.72;100.00
38197;BME280;26543;51.976;4.616;2023-05-23T05:34:04;52632.34;;;-140.72;100.00
38197;BME280;26543;51.976;4.616;2023-05-23T05:36:29;52656.69;;;-140.72;100.00
38197;BME280;26543;51.976;4.616;2023-05-23T05:38:56;52646.53;;;-140.72;100.00
38197;BME280;26543;51.976;4.616;2023-05-23T05:41:21;52630.31;;;-140.72;100.00
38197;BME280;26543;51.976;4.616;2023-05-23T05:43:47;52648.56;;;-140.72;100.00
38197;BME280;26543;51.976;4.616;2023-05-23T05:46:12;52597.84;;;-140.72;100.00
38197;BME280;26543;51.976;4.616;2023-05-23T05:48:37;52650.59;;;-140.72;100.00
38197;BME280;26543;51.976;4.616;2023-05-23T05:51:03;52650.59;;;-140.72;100.00
38197;BME280;26543;51.976;4.616;2023-05-23T05:53:28;52630.31;;;-140.72;100.00
38197;BME280;26543;51.976;4.616;2023-05-23T05:55:53;52628.28;;;-140.72;100.00
38197;BME280;26543;51.976;4.616;2023-05-23T05:58:19;52601.91;;;-140.72;100.00
38197;BME280;26543;51.976;4.616;2023-05-23T06:00:44;52650.59;;;-140.72;100.00
38197;BME280;26543;51.976;4.616;2023-05-23T06:03:27;52652.63;;;-140.72;100.00
38197;BME280;26543;51.976;4.616;2023-05-23T06:05:52;52614.06;;;-140.72;100.00
38197;BME280;26543;51.976;4.616;2023-05-23T06:08:17;52634.38;;;-140.72;100.00
38197;BME280;26543;51.976;4.616;2023-05-23T06:10:42;52616.09;;;-140.72;100.00
38197;BME280;26543;51.976;4.616;2023-05-23T06:15:39;52638.41;;;-140.72;100.00
38197;BME280;26543;51.976;4.616;2023-05-23T06:18:05;52662.78;;;-140.72;100.00
38197;BME280;26543;51.976;4.616;2023-05-23T06:20:30;52638.41;;;-140.72;100.00
38197;BME280;26543;51.976;4.616;2023-05-23T06:22:55;52618.13;;;-140.72;100.00
38197;BME280;26543;51.976;4.616;2023-05-23T06:25:20;52616.09;;;-140.72;100.00
38197;BME280;26543;51.976;4.616;2023-05-23T06:27:46;52638.41;;;-140.72;100.00
38197;BME280;26543;51.976;4.616;2023-05-23T06:30:11;52634.38;;;-140.72;100.00
38197;BME280;26543;51.976;4.616;2023-05-23T06:32:36;52628.28;;;-140.72;100.00
38197;BME280;26543;51.976;4.616;2023-05-23T06:35:02;52646.53;;;-140.72;100.00
38197;BME280;26543;51.976;4.616;2023-05-23T06:37:27;52605.94;;;-140.72;100.00
38197;BME280;26543;51.976;4.616;2023-05-23T06:39:52;52636.38;;;-140.72;100.00
38197;BME280;26543;51.976;4.616;2023-05-23T06:42:18;52634.38;;;-140.72;100.00
38197;BME280;26543;51.976;4.616;2023-05-23T06:44:43;52605.94;;;-140.72;100.00
38197;BME280;26543;51.976;4.616;2023-05-23T06:47:08;52654.66;;;-140.72;100.00
38197;BME280;26543;51.976;4.616;2023-05-23T06:49:33;52642.47;;;-140.72;100.00
38197;BME280;26543;51.976;4.616;2023-05-23T06:51:58;52632.34;;;-140.72;100.00
38197;BME280;26543;51.976;4.616;2023-05-23T06:54:24;52668.84;;;-140.72;100.00
38197;BME280;26543;51.976;4.616;2023-05-23T06:56:49;52605.94;;;-140.72;100.00
38197;BME280;26543;51.976;4.616;2023-05-23T06:59:14;52603.94;;;-140.72;100.00
38197;BME280;26543;51.976;4.616;2023-05-23T07:01:39;52601.91;;;-140.72;100.00
38197;BME280;26543;51.976;4.616;2023-05-23T07:04:05;52638.41;;;-140.72;100.00
38197;BME280;26543;51.976;4.616;2023-05-23T07:06:30;52642.47;;;-140.72;100.00
38197;BME280;26543;51.976;4.616;2023-05-23T07:08:56;52618.13;;;-140.72;100.00
38197;BME280;26543;51.976;4.616;2023-05-23T07:11:21;52634.38;;;-140.72;100.00
38197;BME280;26543;51.976;4.616;2023-05-23T07:13:47;52650.59;;;-140.72;100.00
38197;BME280;26543;51.976;4.616;2023-05-23T07:16:12;52634.38;;;-140.72;100.00
38197;BME280;26543;51.976;4.616;2023-05-23T07:18:37;52581.59;;;-140.72;100.00
38197;BME280;26543;51.976;4.616;2023-05-23T07:21:02;52581.59;;;-140.72;100.00
38197;BME280;26543;51.976;4.616;2023-05-23T07:23:29;52575.50;;;-140.72;91.11
38197;BME280;26543;51.976;4.616;2023-05-23T07:25:56;52510.59;;;-140.72;45.74
38197;BME280;26543;51.976;4.616;2023-05-23T07:28:21;52555.22;;;-140.72;11.27
38197;BME280;26543;51.976;4.616;2023-05-23T07:30:46;52569.44;;;-140.72;1.35
38197;BME280;26543;51.976;4.616;2023-05-23T07:33:11;52577.53;;;-140.72;0.00
38197;BME280;26543;51.976;4.616;2023-05-23T07:35:38;52577.53;;;-140.72;0.00
38197;BME280;26543;51.976;4.616;2023-05-23T07:38:03;52528.84;;;-140.72;0.00
38197;BME280;26543;51.976;4.616;2023-05-23T07:40:28;52577.53;;;-140.72;0.00
38197;BME280;26543;51.976;4.616;2023-05-23T07:42:53;52573.50;;;-140.72;0.00
38197;BME280;26543;51.976;4.616;2023-05-23T07:45:19;52571.47;;;-140.72;0.00
38197;BME280;26543;51.976;4.616;2023-05-23T07:47:45;52589.72;;;-140.72;0.00
38197;BME280;26543;51.976;4.616;2023-05-23T07:50:10;52526.81;;;-140.72;0.00
38197;BME280;26543;51.976;4.616;2023-05-23T07:52:35;52581.59;;;-140.72;0.00
38197;BME280;26543;51.976;4.616;2023-05-23T07:55:00;52571.47;;;-140.72;0.00
38197;BME280;26543;51.976;4.616;2023-05-23T07:57:25;52581.59;;;-140.72;0.00
38197;BME280;26543;51.976;4.616;2023-05-23T07:59:51;52569.44;;;-140.72;0.00
38197;BME280;26543;51.976;4.616;2023-05-23T08:02:17;52494.34;;;-140.72;0.00
38197;BME280;26543;51.976;4.616;2023-05-23T08:04:42;52557.25;;;-140.72;0.00
38197;BME280;26543;51.976;4.616;2023-05-23T08:07:08;52547.09;;;-140.72;0.00
38197;BME280;26543;51.976;4.616;2023-05-23T08:09:34;52549.13;;;-140.72;0.00
38197;BME280;26543;51.976;4.616;2023-05-23T08:11:59;52547.09;;;-140.72;0.00
38197;BME280;26543;51.976;4.616;2023-05-23T08:14:24;52536.97;;;-140.72;0.00
38197;BME280;26543;51.976;4.616;2023-05-23T08:16:50;52528.84;;;-140.72;0.00
38197;BME280;26543;51.976;4.616;2023-05-23T08:19:15;52530.88;;;-140.72;0.00
38197;BME280;26543;51.976;4.616;2023-05-23T08:21:41;52547.09;;;-140.72;0.00
38197;BME280;26543;51.976;4.616;2023-05-23T08:24:07;52536.97;;;-140.72;0.00
38197;BME280;26543;51.976;4.616;2023-05-23T08:26:32;52530.88;;;-140.72;0.00
38197;BME280;26543;51.976;4.616;2023-05-23T08:29:01;52557.25;;;-140.72;0.00
38197;BME280;26543;51.976;4.616;2023-05-23T08:31:30;52520.72;;;-140.72;0.00
38197;BME280;26543;51.976;4.616;2023-05-23T08:33:55;52530.88;;;-140.72;0.00
38197;BME280;26543;51.976;4.616;2023-05-23T08:36:21;52534.94;;;-140.72;0.00
38197;BME280;26543;51.976;4.616;2023-05-23T08:38:48;52524.78;;;-140.72;0.00
38197;BME280;26543;51.976;4.616;2023-05-23T08:41:21;52541.03;;;-140.72;0.00
38197;BME280;26543;51.976;4.616;2023-05-23T08:43:46;52437.53;;;-140.72;0.00
38197;BME280;26543;51.976;4.616;2023-05-23T08:46:12;52465.94;;;-140.72;0.00
38197;BME280;26543;51.976;4.616;2023-05-23T08:48:37;52392.88;;;-140.72;0.00
38197;BME280;26543;51.976;4.616;2023-05-23T08:51:03;52451.72;;;-140.72;0.00
38197;BME280;26543;51.976;4.616;2023-05-23T08:53:28;52453.75;;;-140.72;0.00
38197;BME280;26543;51.976;4.616;2023-05-23T08:55:55;52467.97;;;-140.72;0.00
38197;BME280;26543;51.976;4.616;2023-05-23T08:58:23;52439.56;;;-140.72;0.00
38197;BME280;26543;51.976;4.616;2023-05-23T09:00:53;52390.84;;;-140.72;0.00
38197;BME280;26543;51.976;4.616;2023-05-23T09:03:19;52417.25;;;-140.72;0.00
38197;BME280;26543;51.976;4.616;2023-05-23T09:05:45;52374.63;;;-140.72;0.00
38197;BME280;26543;51.976;4.616;2023-05-23T09:08:10;52386.81;;;-140.72;0.00
38197;BME280;26543;51.976;4.616;2023-05-23T09:10:37;52409.13;;;-140.72;0.00
38197;BME280;26543;51.976;4.616;2023-05-23T09:13:04;52419.28;;;-140.72;0.00
38197;BME280;26543;51.976;4.616;2023-05-23T09:15:29;52407.09;;;-140.72;0.00
38197;BME280;26543;51.976;4.616;2023-05-23T09:17:58;52390.84;;;-140.72;0.00
38197;BME280;26543;51.976;4.616;2023-05-23T09:20:23;52447.69;;;-140.72;0.00
38197;BME280;26543;51.976;4.616;2023-05-23T09:22:49;52342.16;;;-140.72;0.00
38197;BME280;26543;51.976;4.616;2023-05-23T09:25:14;52390.84;;;-140.72;0.00
38197;BME280;26543;51.976;4.616;2023-05-23T09:27:39;52360.44;;;-140.72;0.00
38197;BME280;26543;51.976;4.616;2023-05-23T09:30:05;52441.59;;;-140.72;0.00
38197;BME280;26543;51.976;4.616;2023-05-23T09:32:31;52431.44;;;-140.72;0.00
38197;BME280;26543;51.976;4.616;2023-05-23T09:34:57;52478.13;;;-140.72;0.00
38197;BME280;26543;51.976;4.616;2023-05-23T09:37:35;52445.66;;;-140.72;0.00
38197;BME280;26543;51.976;4.616;2023-05-23T09:40:11;52467.97;;;-140.72;0.00
38197;BME280;26543;51.976;4.616;2023-05-23T09:42:43;52459.84;;;-140.72;0.00
38197;BME280;26543;51.976;4.616;2023-05-23T09:45:09;52417.25;;;-140.72;0.00
38197;BME280;26543;51.976;4.616;2023-05-23T09:47:34;52390.84;;;-140.72;0.00
38197;BME280;26543;51.976;4.616;2023-05-23T09:50:00;52330.00;;;-140.72;0.00
38197;BME280;26543;51.976;4.616;2023-05-23T09:52:25;52386.81;;;-140.72;0.00
38197;BME280;26543;51.976;4.616;2023-05-23T09:54:50;52394.91;;;-140.72;0.00
38197;BME280;26543;51.976;4.616;2023-05-23T09:57:16;52392.88;;;-140.72;0.00
38197;BME280;26543;51.976;4.616;2023-05-23T09:59:44;52277.22;;;-140.72;0.00
38197;BME280;26543;51.976;4.616;2023-05-23T10:02:15;52354.34;;;-140.72;0.00
38197;BME280;26543;51.976;4.616;2023-05-23T10:04:41;52421.28;;;-140.72;0.00
38197;BME280;26543;51.976;4.616;2023-05-23T10:07:13;52338.09;;;-140.72;0.00
38197;BME280;26543;51.976;4.616;2023-05-23T10:09:39;52386.81;;;-140.72;0.00
38197;BME280;26543;51.976;4.616;2023-05-23T10:14:51;52394.91;;;-140.72;0.00
38197;BME280;26543;51.976;4.616;2023-05-23T10:17:20;52338.09;;;-140.72;0.00
38197;BME280;26543;51.976;4.616;2023-05-23T10:22:16;52405.06;;;-140.72;0.00
38197;BME280;26543;51.976;4.616;2023-05-23T10:24:41;52348.25;;;-140.72;0.00
38197;BME280;26543;51.976;4.616;2023-05-23T10:27:08;52305.63;;;-140.72;0.00
38197;BME280;26543;51.976;4.616;2023-05-23T10:29:34;52372.59;;;-140.72;0.00
38197;BME280;26543;51.976;4.616;2023-05-23T10:32:00;52378.69;;;-140.72;0.00
38197;BME280;26543;51.976;4.616;2023-05-23T10:34:29;52401.00;;;-140.72;0.00
38197;BME280;26543;51.976;4.616;2023-05-23T10:37:00;52240.72;;;-140.72;0.00
38197;BME280;26543;51.976;4.616;2023-05-23T10:39:48;52224.47;;;-140.72;0.00
38197;BME280;26543;51.976;4.616;2023-05-23T10:44:51;52196.06;;;-140.72;0.00
38197;BME280;26543;51.976;4.616;2023-05-23T10:47:26;52169.69;;;-140.72;0.00
38197;BME280;26543;51.976;4.616;2023-05-23T10:49:53;52224.47;;;-140.72;0.00
38197;BME280;26543;51.976;4.616;2023-05-23T10:52:18;52273.19;;;-140.72;0.00
38197;BME280;26543;51.976;4.616;2023-05-23T10:54:53;52283.31;;;-140.72;0.00
38197;BME280;26543;51.976;4.616;2023-05-23T10:57:19;52344.19;;;-140.72;0.00
38197;BME280;26543;51.976;4.616;2023-05-23T10:59:45;52394.91;;;-140.72;0.00
38197;BME280;26543;51.976;4.616;2023-05-23T11:02:13;52431.44;;;-140.72;0.00
38197;BME280;26543;51.976;4.616;2023-05-23T11:04:39;52378.69;;;-140.72;0.00
38197;BME280;26543;51.976;4.616;2023-05-23T11:07:05;52401.00;;;-140.72;0.00
38197;BME280;26543;51.976;4.616;2023-05-23T11:09:30;52273.19;;;-140.72;0.00
38197;BME280;26543;51.976;4.616;2023-05-23T11:12:02;52261.00;;;-140.72;0.00
38197;BME280;26543;51.976;4.616;2023-05-23T11:19:35;52066.22;;;-140.72;0.00
38197;BME280;26543;51.976;4.616;2023-05-23T11:22:01;52214.34;;;-140.72;0.00
38197;BME280;26543;51.976;4.616;2023-05-23T11:27:10;52139.25;;;-140.72;0.00
38197;BME280;26543;51.976;4.616;2023-05-23T11:29:36;52244.78;;;-140.72;0.00
38197;BME280;26543;51.976;4.616;2023-05-23T11:32:07;52173.75;;;-140.72;0.00
38197;BME280;26543;51.976;4.616;2023-05-23T11:34:33;52265.06;;;-140.72;0.00
38197;BME280;26543;51.976;4.616;2023-05-23T11:36:59;52301.59;;;-140.72;0.00
38197;BME280;26543;51.976;4.616;2023-05-23T11:39:24;52332.03;;;-140.72;0.00
38197;BME280;26543;51.976;4.616;2023-05-23T11:41:59;52261.00;;;-140.72;0.00
38197;BME280;26543;51.976;4.616;2023-05-23T11:44:25;52153.47;;;-140.72;0.00
38197;BME280;26543;51.976;4.616;2023-05-23T11:47:00;52234.63;;;-140.72;0.00
38197;BME280;26543;51.976;4.616;2023-05-23T11:49:27;52261.00;;;-140.72;0.00
38197;BME280;26543;51.976;4.616;2023-05-23T11:51:52;52155.50;;;-140.72;0.00
38197;BME280;26543;51.976;4.616;2023-05-23T11:54:18;52206.22;;;-140.72;0.00
38197;BME280;26543;51.976;4.616;2023-05-23T11:56:46;52200.13;;;-140.72;0.00
38197;BME280;26543;51.976;4.616;2023-05-23T11:59:11;52198.09;;;-140.72;0.00
38197;BME280;26543;51.976;4.616;2023-05-23T12:01:36;52080.41;;;-140.72;0.00
38197;BME280;26543;51.976;4.616;2023-05-23T12:04:07;52151.44;;;-140.72;0.00
38197;BME280;26543;51.976;4.616;2023-05-23T12:06:33;52074.34;;;-140.72;0.00
38197;BME280;26543;51.976;4.616;2023-05-23T12:08:59;52084.47;;;-140.72;0.00
38197;BME280;26543;51.976;4.616;2023-05-23T12:11:24;52194.03;;;-140.72;0.00
38197;BME280;26543;51.976;4.616;2023-05-23T12:13:51;52269.13;;;-140.72;0.00
38197;BME280;26543;51.976;4.616;2023-05-23T12:16:16;52204.19;;;-140.72;0.00
38197;BME280;26543;51.976;4.616;2023-05-23T12:18:41;52273.19;;;-140.72;0.00
38197;BME280;26543;51.976;4.616;2023-05-23T12:21:07;52232.59;;;-140.72;0.00
38197;BME280;26543;51.976;4.616;2023-05-23T12:23:32;52273.19;;;-140.72;0.00
38197;BME280;26543;51.976;4.616;2023-05-23T12:25:58;52212.31;;;-140.72;0.00
38197;BME280;26543;51.976;4.616;2023-05-23T12:31:15;52074.34;;;-140.72;0.00
38197;BME280;26543;51.976;4.616;2023-05-23T12:33:40;52060.13;;;-140.72;0.00
38197;BME280;26543;51.976;4.616;2023-05-23T12:36:10;52015.50;;;-140.72;0.00
38197;BME280;26543;51.976;4.616;2023-05-23T12:38:36;52070.28;;;-140.72;0.00
38197;BME280;26543;51.976;4.616;2023-05-23T12:41:37;52147.38;;;-140.72;0.00
38197;BME280;26543;51.976;4.616;2023-05-23T12:43:56;52161.56;;;-140.72;0.00
38197;BME280;26543;51.976;4.616;2023-05-23T12:46:25;52183.91;;;-140.72;0.00
38197;BME280;26543;51.976;4.616;2023-05-23T12:48:50;52212.31;;;-140.72;0.00
38197;BME280;26543;51.976;4.616;2023-05-23T12:51:16;52244.78;;;-140.72;0.00
38197;BME280;26543;51.976;4.616;2023-05-23T12:53:42;52293.47;;;-140.72;0.00
38197;BME280;26543;51.976;4.616;2023-05-23T12:56:07;52305.63;;;-140.72;0.00
38197;BME280;26543;51.976;4.616;2023-05-23T12:58:32;52297.53;;;-140.72;0.00
38197;BME280;26543;51.976;4.616;2023-05-23T13:00:59;52212.31;;;-140.72;0.00
38197;BME280;26543;51.976;4.616;2023-05-23T13:03:24;52196.06;;;-140.72;0.00